Time;durP1;ratioP1;P1;durP2;ratioP2;P2;SDS_P1;SDS_P2;PMS_P1;PMS_P2;Temp;Humidity;BMP_temperature;BMP_pressure;BME280_temperature;BME280_humidity;BME280_pressure;Samples;Min_cycle;Max_cycle;Signal;HPM_P1;HPM_P2
2023/09/15 00:00:29;;;;;;;3.00;1.60;;;;;;;;;;5053003;28;20446;-67
2023/09/15 00:02:58;;;;;;;3.17;1.50;;;;;;;;;;5052383;28;20461;-67
2023/09/15 00:05:28;;;;;;;2.37;1.00;;;;;;;;;;5051307;28;20485;-67
2023/09/15 00:07:55;;;;;;;2.70;1.40;;;;;;;;;;5058863;28;20529;-66
2023/09/15 00:10:22;;;;;;;2.73;1.50;;;;;;;;;;5051376;28;20535;-66
2023/09/15 00:12:49;;;;;;;1.90;1.30;;;;;;;;;;5051530;28;21058;-66
2023/09/15 00:15:17;;;;;;;6.50;1.30;;;;;;;;;;5050233;28;20465;-67
2023/09/15 00:17:45;;;;;;;3.63;1.53;;;;;;;;;;5049339;28;20446;-66
2023/09/15 00:20:14;;;;;;;2.20;1.03;;;;;;;;;;5062345;28;20557;-67
2023/09/15 00:22:42;;;;;;;2.13;1.23;;;;;;;;;;5046876;28;20777;-66
2023/09/15 00:25:09;;;;;;;2.93;1.40;;;;;;;;;;5041613;28;20921;-66
2023/09/15 00:27:37;;;;;;;3.23;1.23;;;;;;;;;;5054824;28;20521;-66
2023/09/15 00:30:04;;;;;;;2.20;1.20;;;;;;;;;;5050999;28;20540;-66
2023/09/15 00:32:31;;;;;;;2.80;1.57;;;;;;;;;;5051599;28;20489;-66
2023/09/15 00:34:58;;;;;;;2.90;1.47;;;;;;;;;;5062936;28;20455;-66
2023/09/15 00:37:27;;;;;;;2.10;1.00;;;;;;;;;;5054473;28;20860;-66
2023/09/15 00:39:54;;;;;;;2.23;1.20;;;;;;;;;;5061888;28;20475;-66
2023/09/15 00:42:21;;;;;;;3.33;1.97;;;;;;;;;;5050960;28;20446;-67
2023/09/15 00:44:48;;;;;;;4.30;1.80;;;;;;;;;;5050522;28;20453;-66
2023/09/15 00:47:15;;;;;;;3.63;1.40;;;;;;;;;;5052496;28;20896;-66
2023/09/15 00:49:43;;;;;;;2.70;1.63;;;;;;;;;;5064424;28;20470;-65
2023/09/15 00:52:10;;;;;;;2.80;1.53;;;;;;;;;;5062378;28;20482;-66
2023/09/15 00:54:40;;;;;;;2.67;1.30;;;;;;;;;;5051054;28;20453;-66
2023/09/15 00:57:07;;;;;;;1.70;1.00;;;;;;;;;;5065156;28;20537;-66
2023/09/15 00:59:36;;;;;;;2.60;1.43;;;;;;;;;;5059538;28;20462;-66
2023/09/15 01:02:03;;;;;;;2.30;1.40;;;;;;;;;;5043529;28;20793;-66
2023/09/15 01:04:31;;;;;;;3.10;1.43;;;;;;;;;;5047398;28;20932;-65
2023/09/15 01:07:01;;;;;;;2.80;1.60;;;;;;;;;;5051309;28;20928;-66
2023/09/15 01:09:29;;;;;;;3.97;1.47;;;;;;;;;;5058065;28;20465;-68
2023/09/15 01:11:57;;;;;;;2.67;1.50;;;;;;;;;;5050637;28;20539;-67
2023/09/15 01:14:25;;;;;;;1.80;1.00;;;;;;;;;;5051109;28;20575;-67
2023/09/15 01:16:55;;;;;;;2.57;1.20;;;;;;;;;;5051059;28;20446;-67
2023/09/15 01:19:39;;;;;;;3.13;1.43;;;;;;;;;;5055334;28;20497;-67
2023/09/15 01:22:18;;;;;;;4.03;1.60;;;;;;;;;;5052980;28;20435;-67
2023/09/15 01:24:57;;;;;;;2.70;1.40;;;;;;;;;;5050129;28;20449;-69
2023/09/15 01:27:35;;;;;;;3.47;1.43;;;;;;;;;;5053929;28;20633;-66
2023/09/15 01:30:04;;;;;;;2.73;1.37;;;;;;;;;;5052216;28;20943;-67
2023/09/15 01:32:33;;;;;;;2.67;1.33;;;;;;;;;;5054126;28;20530;-66
2023/09/15 01:35:03;;;;;;;2.50;1.40;;;;;;;;;;5053521;28;20496;-66
2023/09/15 01:37:30;;;;;;;9.73;1.70;;;;;;;;;;5067165;28;20449;-66
2023/09/15 01:39:59;;;;;;;2.90;1.37;;;;;;;;;;5063740;28;20531;-66
2023/09/15 01:42:26;;;;;;;3.10;2.23;;;;;;;;;;5055933;28;20438;-66
2023/09/15 01:44:54;;;;;;;2.57;1.63;;;;;;;;;;5063724;28;20455;-66
2023/09/15 01:47:23;;;;;;;3.43;2.30;;;;;;;;;;5057829;28;20454;-67
2023/09/15 01:49:51;;;;;;;2.30;1.37;;;;;;;;;;5062859;28;20462;-66
2023/09/15 01:52:18;;;;;;;1.97;1.30;;;;;;;;;;5054643;28;20512;-67
2023/09/15 01:54:45;;;;;;;2.40;1.20;;;;;;;;;;5064217;28;20884;-67
2023/09/15 01:57:12;;;;;;;1.90;0.90;;;;;;;;;;5057134;28;20838;-67
2023/09/15 01:59:39;;;;;;;3.40;1.30;;;;;;;;;;5062412;28;20462;-67
2023/09/15 02:02:06;;;;;;;2.67;1.10;;;;;;;;;;5052821;28;20434;-67
2023/09/15 02:04:35;;;;;;;1.87;1.20;;;;;;;;;;5053983;28;20492;-67
2023/09/15 02:07:02;;;;;;;2.17;1.10;;;;;;;;;;5053899;28;20516;-67
2023/09/15 02:09:29;;;;;;;2.70;1.57;;;;;;;;;;5058194;28;20968;-67
2023/09/15 02:11:56;;;;;;;7.50;1.57;;;;;;;;;;5049511;28;20481;-68
2023/09/15 02:14:23;;;;;;;3.00;1.50;;;;;;;;;;5053852;28;20454;-67
2023/09/15 02:16:51;;;;;;;2.93;1.43;;;;;;;;;;5052806;28;20461;-67
2023/09/15 02:19:18;;;;;;;2.70;1.57;;;;;;;;;;5056249;28;20473;-67
2023/09/15 02:21:47;;;;;;;3.37;1.50;;;;;;;;;;5053004;28;20529;-67
2023/09/15 02:24:15;;;;;;;2.77;1.20;;;;;;;;;;5053523;28;20492;-68
2023/09/15 02:26:42;;;;;;;2.03;1.13;;;;;;;;;;5055086;28;20772;-67
2023/09/15 02:29:09;;;;;;;1.50;0.70;;;;;;;;;;5044903;28;20471;-67
2023/09/15 02:31:38;;;;;;;3.60;1.40;;;;;;;;;;5055972;28;20446;-67
2023/09/15 02:34:05;;;;;;;2.50;0.87;;;;;;;;;;5053697;28;20500;-66
2023/09/15 02:36:32;;;;;;;1.73;0.90;;;;;;;;;;5062889;28;20442;-66
2023/09/15 02:39:01;;;;;;;3.50;1.47;;;;;;;;;;5063370;28;20481;-66
2023/09/15 02:41:28;;;;;;;2.97;1.10;;;;;;;;;;5052910;28;20451;-67
2023/09/15 02:43:55;;;;;;;2.13;1.10;;;;;;;;;;5052908;28;20447;-66
2023/09/15 02:46:22;;;;;;;2.17;1.03;;;;;;;;;;5062787;28;20862;-66
2023/09/15 02:48:49;;;;;;;2.20;1.10;;;;;;;;;;5063535;28;20458;-68
2023/09/15 02:51:16;;;;;;;1.80;1.00;;;;;;;;;;5054322;28;20446;-66
2023/09/15 02:53:43;;;;;;;2.53;1.47;;;;;;;;;;5053135;28;20482;-66
2023/09/15 02:56:12;;;;;;;2.00;1.10;;;;;;;;;;5059435;28;20438;-66
2023/09/15 02:58:39;;;;;;;2.33;1.30;;;;;;;;;;5059898;28;20466;-66
2023/09/15 03:01:12;;;;;;;2.33;1.60;;;;;;;;;;5049025;28;20877;-66
2023/09/15 03:03:39;;;;;;;2.20;1.37;;;;;;;;;;5052415;28;20460;-67
2023/09/15 03:06:06;;;;;;;2.70;1.37;;;;;;;;;;5057296;28;20442;-67
2023/09/15 03:08:34;;;;;;;2.13;1.17;;;;;;;;;;5057126;28;20948;-66
2023/09/15 03:11:01;;;;;;;3.13;1.40;;;;;;;;;;5051284;28;20532;-67
2023/09/15 03:13:29;;;;;;;2.70;1.30;;;;;;;;;;5051474;28;21062;-67
2023/09/15 03:15:57;;;;;;;1.90;1.10;;;;;;;;;;5054755;28;20446;-66
2023/09/15 03:18:24;;;;;;;2.33;1.33;;;;;;;;;;5055478;28;20549;-67
2023/09/15 03:20:51;;;;;;;3.10;1.20;;;;;;;;;;5052457;28;20907;-67
2023/09/15 03:23:18;;;;;;;3.03;1.73;;;;;;;;;;5051496;28;20438;-67
2023/09/15 03:25:45;;;;;;;4.10;1.87;;;;;;;;;;5052978;28;20771;-67
2023/09/15 03:28:12;;;;;;;3.60;1.40;;;;;;;;;;5052674;28;20439;-66
2023/09/15 03:30:41;;;;;;;3.43;1.27;;;;;;;;;;5047595;28;20568;-67
2023/09/15 03:33:08;;;;;;;2.30;1.50;;;;;;;;;;5038201;28;20485;-66
2023/09/15 03:35:36;;;;;;;5.97;1.80;;;;;;;;;;5054053;28;21163;-66
2023/09/15 03:38:03;;;;;;;3.07;1.17;;;;;;;;;;5039911;28;20445;-67
2023/09/15 03:40:31;;;;;;;2.30;1.27;;;;;;;;;;5051301;28;20512;-67
2023/09/15 03:42:58;;;;;;;3.50;1.70;;;;;;;;;;5052533;28;20530;-67
2023/09/15 03:45:25;;;;;;;2.80;1.70;;;;;;;;;;5065592;28;20438;-66
2023/09/15 03:47:53;;;;;;;3.43;1.40;;;;;;;;;;5055437;28;20433;-67
2023/09/15 03:50:21;;;;;;;2.70;1.30;;;;;;;;;;5055677;28;20458;-66
2023/09/15 03:52:48;;;;;;;2.73;1.40;;;;;;;;;;5051341;28;20478;-67
2023/09/15 03:55:17;;;;;;;2.57;1.00;;;;;;;;;;5047138;28;20447;-67
2023/09/15 03:57:44;;;;;;;4.83;1.20;;;;;;;;;;5058759;28;20956;-66
2023/09/15 04:00:16;;;;;;;2.50;1.70;;;;;;;;;;5055780;28;20465;-67
2023/09/15 04:02:43;;;;;;;2.17;1.20;;;;;;;;;;5051722;28;20435;-67
2023/09/15 04:05:12;;;;;;;2.90;1.30;;;;;;;;;;5051698;28;20442;-67
2023/09/15 04:07:39;;;;;;;2.33;1.43;;;;;;;;;;5054514;28;20911;-67
2023/09/15 04:10:06;;;;;;;3.57;1.90;;;;;;;;;;5050409;28;20470;-67
2023/09/15 04:12:33;;;;;;;2.03;1.33;;;;;;;;;;5051288;28;20573;-67
2023/09/15 04:15:00;;;;;;;2.43;1.30;;;;;;;;;;5051915;28;20925;-67
2023/09/15 04:17:27;;;;;;;4.63;1.57;;;;;;;;;;5053753;28;20487;-68
2023/09/15 04:19:54;;;;;;;2.20;1.17;;;;;;;;;;5049362;28;20539;-67
2023/09/15 04:22:23;;;;;;;3.10;1.40;;;;;;;;;;5045277;28;20491;-67
2023/09/15 04:24:50;;;;;;;1.83;1.10;;;;;;;;;;5051732;28;20446;-67
2023/09/15 04:27:17;;;;;;;3.07;1.50;;;;;;;;;;5052052;28;20924;-67
2023/09/15 04:29:52;;;;;;;2.77;1.27;;;;;;;;;;5052109;28;20466;-67
2023/09/15 04:32:20;;;;;;;2.70;1.10;;;;;;;;;;5050745;28;20456;-67
2023/09/15 04:34:47;;;;;;;3.60;1.50;;;;;;;;;;5050825;28;20445;-67
2023/09/15 04:37:14;;;;;;;3.60;1.33;;;;;;;;;;5052026;28;20517;-66
2023/09/15 04:39:42;;;;;;;2.60;1.07;;;;;;;;;;5061934;28;20536;-66
2023/09/15 04:42:10;;;;;;;3.27;1.53;;;;;;;;;;5049721;28;20447;-67
2023/09/15 04:44:37;;;;;;;2.20;1.43;;;;;;;;;;5052960;28;20473;-66
2023/09/15 04:47:05;;;;;;;3.60;1.43;;;;;;;;;;5055029;28;20503;-66
2023/09/15 04:49:32;;;;;;;2.93;1.40;;;;;;;;;;5053696;28;20454;-66
2023/09/15 04:51:59;;;;;;;3.10;1.77;;;;;;;;;;5050776;28;20445;-67
2023/09/15 04:54:26;;;;;;;2.40;1.37;;;;;;;;;;5053724;28;20493;-66
2023/09/15 04:56:55;;;;;;;3.33;1.87;;;;;;;;;;5062488;28;20441;-66
2023/09/15 04:59:22;;;;;;;2.40;1.40;;;;;;;;;;5054559;28;20462;-66
2023/09/15 05:01:49;;;;;;;2.97;1.47;;;;;;;;;;5054041;28;20446;-67
2023/09/15 05:04:18;;;;;;;3.43;1.60;;;;;;;;;;5053397;28;20492;-67
2023/09/15 05:06:45;;;;;;;2.00;1.13;;;;;;;;;;5054641;28;20453;-67
2023/09/15 05:09:14;;;;;;;4.10;1.67;;;;;;;;;;5061099;28;20457;-66
2023/09/15 05:11:41;;;;;;;6.43;1.67;;;;;;;;;;5054842;28;20523;-66
2023/09/15 05:14:10;;;;;;;4.70;2.00;;;;;;;;;;5054407;28;20991;-66
2023/09/15 05:16:37;;;;;;;4.17;1.23;;;;;;;;;;5054303;28;20442;-66
2023/09/15 05:19:04;;;;;;;3.20;1.40;;;;;;;;;;5055322;28;20454;-66
2023/09/15 05:21:31;;;;;;;4.30;1.50;;;;;;;;;;5053416;28;20449;-66
2023/09/15 05:23:58;;;;;;;2.73;1.60;;;;;;;;;;5055451;28;20445;-66
2023/09/15 05:26:25;;;;;;;2.27;1.40;;;;;;;;;;5054423;28;20552;-66
2023/09/15 05:28:52;;;;;;;2.33;1.60;;;;;;;;;;5057354;28;20464;-66
2023/09/15 05:31:25;;;;;;;2.43;1.50;;;;;;;;;;5046095;28;20492;-66
2023/09/15 05:33:52;;;;;;;5.97;2.40;;;;;;;;;;5054331;28;20531;-66
2023/09/15 05:36:20;;;;;;;2.37;1.47;;;;;;;;;;5059727;28;20477;-66
2023/09/15 05:38:47;;;;;;;2.43;1.47;;;;;;;;;;5063396;28;20476;-63
2023/09/15 05:41:14;;;;;;;4.43;1.70;;;;;;;;;;5053510;28;20485;-63
2023/09/15 05:43:41;;;;;;;2.57;1.47;;;;;;;;;;5054435;28;20453;-63
2023/09/15 05:46:08;;;;;;;3.30;1.80;;;;;;;;;;5054371;28;20438;-63
2023/09/15 05:48:36;;;;;;;3.27;1.37;;;;;;;;;;5060461;28;20458;-64
2023/09/15 05:51:04;;;;;;;2.33;1.30;;;;;;;;;;5054342;28;20453;-64
2023/09/15 05:53:31;;;;;;;2.70;1.50;;;;;;;;;;5053840;28;20514;-63
2023/09/15 05:55:58;;;;;;;3.80;2.17;;;;;;;;;;5052985;28;20959;-63
2023/09/15 05:58:25;;;;;;;4.10;1.97;;;;;;;;;;5059604;28;20462;-63
2023/09/15 06:00:55;;;;;;;2.97;1.60;;;;;;;;;;5053703;28;20451;-64
2023/09/15 06:03:23;;;;;;;4.83;2.93;;;;;;;;;;5054320;28;20449;-64
2023/09/15 06:05:52;;;;;;;3.13;1.50;;;;;;;;;;5064155;28;20446;-64
2023/09/15 06:08:19;;;;;;;3.33;1.40;;;;;;;;;;5054906;28;20438;-64
2023/09/15 06:10:46;;;;;;;5.23;2.27;;;;;;;;;;5053697;28;20526;-64
2023/09/15 06:13:14;;;;;;;4.30;1.80;;;;;;;;;;5052703;28;20490;-64
2023/09/15 06:15:41;;;;;;;3.20;1.70;;;;;;;;;;5053101;28;20450;-64
2023/09/15 06:18:08;;;;;;;2.13;1.20;;;;;;;;;;5056274;28;20438;-64
2023/09/15 06:20:35;;;;;;;3.40;1.40;;;;;;;;;;5060379;28;20854;-63
2023/09/15 06:23:04;;;;;;;2.77;1.40;;;;;;;;;;5053503;28;20928;-64
2023/09/15 06:25:31;;;;;;;4.23;1.83;;;;;;;;;;5052743;28;20439;-64
2023/09/15 06:27:59;;;;;;;3.40;1.83;;;;;;;;;;5054828;28;20445;-64
2023/09/15 06:30:27;;;;;;;4.20;1.93;;;;;;;;;;5058730;28;20504;-64
2023/09/15 06:32:55;;;;;;;4.20;2.27;;;;;;;;;;5053834;28;20519;-64
2023/09/15 06:35:23;;;;;;;3.70;1.80;;;;;;;;;;5052064;28;20450;-64
2023/09/15 06:37:50;;;;;;;5.23;2.40;;;;;;;;;;5053967;28;20546;-64
2023/09/15 06:40:18;;;;;;;7.30;1.80;;;;;;;;;;5059881;28;20472;-64
2023/09/15 06:42:46;;;;;;;4.47;1.97;;;;;;;;;;5058458;28;20861;-64
2023/09/15 06:45:13;;;;;;;4.33;1.90;;;;;;;;;;5059199;28;20450;-63
2023/09/15 06:47:40;;;;;;;3.60;1.87;;;;;;;;;;5039976;28;20452;-65
2023/09/15 06:50:07;;;;;;;3.20;2.20;;;;;;;;;;5058451;28;20496;-65
2023/09/15 06:52:34;;;;;;;5.17;2.30;;;;;;;;;;5055792;28;20934;-64
2023/09/15 06:55:01;;;;;;;3.30;1.80;;;;;;;;;;5058694;28;20520;-64
2023/09/15 06:57:30;;;;;;;4.73;2.67;;;;;;;;;;5062364;28;20800;-64
2023/09/15 06:59:57;;;;;;;4.03;2.30;;;;;;;;;;5055972;28;20976;-64
2023/09/15 07:02:24;;;;;;;4.30;1.90;;;;;;;;;;5055552;28;20441;-64
2023/09/15 07:04:51;;;;;;;3.17;2.23;;;;;;;;;;5057285;28;20458;-64
2023/09/15 07:07:18;;;;;;;3.20;1.97;;;;;;;;;;5052410;28;20449;-64
2023/09/15 07:09:45;;;;;;;7.27;2.73;;;;;;;;;;5053656;28;20940;-64
2023/09/15 07:12:12;;;;;;;6.43;2.23;;;;;;;;;;5052455;28;20465;-64
2023/09/15 07:14:40;;;;;;;3.50;2.13;;;;;;;;;;5052014;28;20991;-64
2023/09/15 07:17:07;;;;;;;4.93;2.97;;;;;;;;;;5049994;28;20440;-64
2023/09/15 07:19:34;;;;;;;4.10;3.10;;;;;;;;;;5053697;28;20462;-64
2023/09/15 07:22:01;;;;;;;5.07;2.87;;;;;;;;;;5051904;28;20932;-64
2023/09/15 07:24:28;;;;;;;3.87;2.03;;;;;;;;;;5050211;28;20449;-63
2023/09/15 07:26:56;;;;;;;4.50;2.80;;;;;;;;;;5054105;28;20434;-65
2023/09/15 07:29:23;;;;;;;3.80;2.90;;;;;;;;;;5061063;28;21022;-63
2023/09/15 07:31:51;;;;;;;4.10;3.07;;;;;;;;;;5051782;28;20794;-63
2023/09/15 07:34:21;;;;;;;7.70;3.23;;;;;;;;;;5054208;28;20474;-64
2023/09/15 07:36:50;;;;;;;3.67;2.47;;;;;;;;;;5058049;28;20465;-63
2023/09/15 07:39:17;;;;;;;3.97;3.03;;;;;;;;;;5061072;28;20476;-63
2023/09/15 07:41:45;;;;;;;7.50;3.20;;;;;;;;;;5050949;28;20462;-62
2023/09/15 07:44:12;;;;;;;5.50;3.57;;;;;;;;;;5051131;28;20950;-63
2023/09/15 07:46:40;;;;;;;4.93;2.80;;;;;;;;;;5051503;28;20500;-64
2023/09/15 07:49:08;;;;;;;4.43;3.33;;;;;;;;;;5056733;28;20505;-63
2023/09/15 07:51:35;;;;;;;4.40;2.60;;;;;;;;;;5062862;28;20499;-63
2023/09/15 07:54:02;;;;;;;4.67;2.80;;;;;;;;;;5052415;28;20488;-63
2023/09/15 07:56:29;;;;;;;3.73;2.60;;;;;;;;;;5051808;28;20438;-63
2023/09/15 07:58:56;;;;;;;3.83;2.47;;;;;;;;;;5053347;28;20849;-63
2023/09/15 08:01:23;;;;;;;4.50;2.97;;;;;;;;;;5050666;28;20507;-64
2023/09/15 08:03:50;;;;;;;6.40;3.77;;;;;;;;;;5051459;28;20438;-64
2023/09/15 08:06:19;;;;;;;4.97;2.50;;;;;;;;;;5057419;28;20928;-64
2023/09/15 08:08:46;;;;;;;3.87;3.30;;;;;;;;;;5039243;28;20454;-64
2023/09/15 08:11:15;;;;;;;4.80;2.70;;;;;;;;;;5057015;28;20438;-64
2023/09/15 08:13:42;;;;;;;5.17;2.80;;;;;;;;;;5038812;28;20480;-64
2023/09/15 08:16:09;;;;;;;4.50;3.10;;;;;;;;;;5051382;28;20449;-63
2023/09/15 08:18:36;;;;;;;3.80;2.50;;;;;;;;;;5055450;28;20461;-64
2023/09/15 08:21:04;;;;;;;3.97;2.63;;;;;;;;;;5057221;28;20452;-63
2023/09/15 08:23:32;;;;;;;5.63;2.87;;;;;;;;;;5051491;28;20986;-64
2023/09/15 08:26:01;;;;;;;5.70;3.27;;;;;;;;;;5051330;28;20439;-63
2023/09/15 08:28:28;;;;;;;4.67;3.00;;;;;;;;;;5063179;28;21027;-63
2023/09/15 08:30:55;;;;;;;4.57;2.90;;;;;;;;;;5052339;28;20473;-64
2023/09/15 08:33:22;;;;;;;4.90;3.20;;;;;;;;;;5040068;28;20450;-64
2023/09/15 08:35:49;;;;;;;3.47;2.57;;;;;;;;;;5047866;28;20449;-63
2023/09/15 08:38:16;;;;;;;3.90;2.43;;;;;;;;;;5057641;28;20485;-64
2023/09/15 08:40:48;;;;;;;5.03;3.53;;;;;;;;;;5059254;28;20450;-65
2023/09/15 08:43:15;;;;;;;8.20;3.10;;;;;;;;;;5055363;28;20777;-63
2023/09/15 08:45:44;;;;;;;4.57;3.03;;;;;;;;;;5058531;28;20438;-63
2023/09/15 08:48:11;;;;;;;9.10;3.60;;;;;;;;;;5056934;28;20795;-64
2023/09/15 08:50:39;;;;;;;4.20;2.37;;;;;;;;;;5057613;28;20450;-63
2023/09/15 08:53:06;;;;;;;5.10;2.50;;;;;;;;;;5062348;28;20439;-64
2023/09/15 08:55:33;;;;;;;4.00;2.37;;;;;;;;;;5053572;28;20493;-64
2023/09/15 08:58:02;;;;;;;6.07;3.00;;;;;;;;;;5055232;28;20846;-63
2023/09/15 09:00:32;;;;;;;3.77;2.77;;;20.50;41.30;;;;;;5057324;28;20473;-63
2023/09/15 09:02:59;;;;;;;5.47;2.50;;;19.50;99.90;;;;;;5056745;28;20449;-63
2023/09/15 09:05:28;;;;;;;6.27;3.30;;;19.30;99.90;;;;;;5054949;28;20453;-65
2023/09/15 09:08:00;;;;;;;7.63;3.07;;;19.40;99.90;;;;;;5054787;28;20446;-63
2023/09/15 09:10:26;;;;;;;3.37;2.67;;;19.50;99.90;;;;;;5057139;28;20466;-63
2023/09/15 09:12:53;;;;;;;6.60;3.57;;;19.60;99.90;;;;;;5055866;28;20453;-63
2023/09/15 09:15:22;;;;;;;5.63;2.63;;;19.60;99.90;;;;;;5043628;28;20478;-64
2023/09/15 09:17:50;;;;;;;5.00;2.77;;;19.80;99.90;;;;;;5075542;28;20438;-64
2023/09/15 09:20:26;;;;;;;5.30;3.17;;;19.80;99.90;;;;;;5065924;28;20462;-63
2023/09/15 09:22:54;;;;;;;5.20;3.40;;;19.80;99.90;;;;;;5054675;28;20442;-64
2023/09/15 09:25:27;;;;;;;5.20;3.00;;;19.90;99.90;;;;;;5049055;28;20435;-63
2023/09/15 09:27:55;;;;;;;4.47;2.63;;;20.10;99.90;;;;;;5050760;28;20449;-64
2023/09/15 09:30:26;;;;;;;5.00;3.47;;;20.20;99.90;;;;;;5063208;28;20473;-64
2023/09/15 09:32:52;;;;;;;4.70;3.23;;;20.30;99.90;;;;;;5053798;28;20482;-65
2023/09/15 09:35:19;;;;;;;6.00;4.17;;;20.30;99.90;;;;;;5061479;28;20507;-64
2023/09/15 09:37:46;;;;;;;4.67;2.80;;;20.40;99.90;;;;;;5056799;28;20443;-65
2023/09/15 09:40:13;;;;;;;5.43;3.40;;;20.50;99.90;;;;;;5060650;28;20504;-63
2023/09/15 09:42:39;;;;;;;5.63;3.77;;;20.50;99.90;;;;;;5054054;28;20500;-63
2023/09/15 09:45:07;;;;;;;3.70;2.50;;;20.60;99.90;;;;;;5056059;28;20435;-63
2023/09/15 09:47:35;;;;;;;5.10;2.90;;;20.70;99.90;;;;;;5052384;28;20468;-63
2023/09/15 09:50:05;;;;;;;4.20;2.70;;;21.00;99.90;;;;;;5063577;28;20507;-65
2023/09/15 09:52:32;;;;;;;5.27;2.93;;;20.90;99.90;;;;;;5053197;28;20924;-64
2023/09/15 09:55:02;;;;;;;7.13;2.90;;;21.00;99.90;;;;;;5053970;28;20497;-64
2023/09/15 09:57:29;;;;;;;4.13;3.30;;;21.20;99.90;;;;;;5040622;28;20450;-63
2023/09/15 09:59:56;;;;;;;5.40;3.00;;;21.20;99.90;;;;;;5062614;28;20483;-63
2023/09/15 10:02:22;;;;;;;4.20;3.10;;;21.30;99.90;;;;;;5047477;28;20507;-63
2023/09/15 10:04:50;;;;;;;5.23;3.70;;;21.30;99.90;;;;;;5052872;28;20442;-63
2023/09/15 10:07:17;;;;;;;4.73;3.47;;;21.40;99.90;;;;;;5061779;28;20446;-64
2023/09/15 10:09:45;;;;;;;4.80;2.90;;;21.40;99.90;;;;;;5065944;28;20464;-64
2023/09/15 10:12:14;;;;;;;3.40;2.60;;;21.50;99.90;;;;;;5057362;28;20864;-63
2023/09/15 10:14:41;;;;;;;4.40;3.13;;;21.80;99.90;;;;;;5053346;28;20485;-64
2023/09/15 10:17:07;;;;;;;4.57;3.27;;;21.70;99.90;;;;;;5059548;28;20446;-64
2023/09/15 10:19:35;;;;;;;3.70;2.37;;;21.80;99.90;;;;;;5063801;28;20983;-63
2023/09/15 10:22:04;;;;;;;6.27;3.57;;;21.80;99.90;;;;;;5052080;28;20469;-64
2023/09/15 10:24:32;;;;;;;4.63;2.30;;;21.90;99.90;;;;;;5053579;28;20446;-65
2023/09/15 10:26:59;;;;;;;4.30;2.60;;;21.90;99.90;;;;;;5052846;28;20438;-65
2023/09/15 10:29:31;;;;;;;4.47;2.90;;;22.10;99.90;;;;;;5058500;28;20453;-63
2023/09/15 10:32:03;;;;;;;5.87;2.90;;;22.30;99.90;;;;;;5053191;28;20925;-63
2023/09/15 10:34:30;;;;;;;5.97;2.67;;;22.10;99.90;;;;;;5052849;28;20478;-64
2023/09/15 10:37:01;;;;;;;4.90;2.70;;;22.20;99.90;;;;;;5054493;28;20533;-65
2023/09/15 10:39:37;;;;;;;4.10;3.20;;;22.20;99.90;;;;;;5057684;28;21015;-65
2023/09/15 10:42:08;;;;;;;5.30;2.83;;;22.40;99.90;;;;;;5052830;28;20430;-64
2023/09/15 10:44:35;;;;;;;4.23;2.73;;;22.60;99.90;;;;;;5052661;28;20450;-65
2023/09/15 10:47:02;;;;;;;4.40;2.60;;;22.70;99.90;;;;;;5063132;28;20438;-65
2023/09/15 10:49:29;;;;;;;4.47;2.97;;;22.70;99.90;;;;;;5054894;28;20463;-65
2023/09/15 10:51:57;;;;;;;3.83;2.77;;;22.80;99.90;;;;;;5052829;28;20910;-65
2023/09/15 10:54:31;;;;;;;3.13;2.40;;;22.80;99.90;;;;;;5053626;28;20568;-64
2023/09/15 10:56:58;;;;;;;4.10;3.03;;;22.90;99.90;;;;;;5062315;28;20438;-64
2023/09/15 10:59:26;;;;;;;4.13;2.97;;;23.20;99.90;;;;;;5061550;28;20511;-65
2023/09/15 11:01:55;;;;;;;2.97;2.50;;;23.20;99.90;;;;;;5052075;28;20434;-64
2023/09/15 11:04:22;;;;;;;4.00;2.93;;;23.30;99.90;;;;;;5051911;28;20453;-65
2023/09/15 11:06:51;;;;;;;4.60;3.10;;;23.20;99.90;;;;;;5058615;28;20549;-64
2023/09/15 11:09:19;;;;;;;6.40;2.63;;;23.40;99.90;;;;;;5061332;28;20466;-65
2023/09/15 11:11:47;;;;;;;4.90;3.17;;;23.60;99.90;;;;;;5053933;28;20446;-64
2023/09/15 11:14:16;;;;;;;3.50;2.73;;;23.50;99.90;;;;;;5051595;28;20434;-65
2023/09/15 11:16:48;;;;;;;4.13;2.60;;;23.70;99.90;;;;;;5055669;28;20442;-65
2023/09/15 11:19:15;;;;;;;4.00;2.00;;;23.80;99.90;;;;;;5060255;28;20465;-63
2023/09/15 11:21:42;;;;;;;4.67;2.80;;;23.80;99.90;;;;;;5055976;28;20447;-65
2023/09/15 11:24:10;;;;;;;4.27;3.10;;;23.90;99.90;;;;;;5052097;28;20446;-66
2023/09/15 11:26:43;;;;;;;4.93;2.37;;;23.80;99.90;;;;;;5051684;28;20951;-66
2023/09/15 11:29:11;;;;;;;3.63;2.27;;;23.90;99.90;;;;;;5056560;28;20461;-66
2023/09/15 11:31:40;;;;;;;3.13;2.17;;;24.00;99.90;;;;;;5049745;28;20496;-65
2023/09/15 11:34:08;;;;;;;2.93;2.47;;;24.10;99.90;;;;;;5051348;28;20468;-64
2023/09/15 11:36:36;;;;;;;4.20;2.90;;;24.30;99.90;;;;;;5063161;28;20477;-65
2023/09/15 11:39:07;;;;;;;3.57;2.93;;;24.50;96.80;;;;;;5059636;28;20473;-63
2023/09/15 11:41:34;;;;;;;4.10;2.90;;;24.40;92.60;;;;;;5051968;28;21226;-65
2023/09/15 11:44:03;;;;;;;3.80;2.70;;;24.40;89.90;;;;;;5051592;28;20480;-65
2023/09/15 11:46:31;;;;;;;3.20;2.50;;;24.50;86.80;;;;;;5053271;28;20492;-64
2023/09/15 11:48:58;;;;;;;3.03;2.37;;;24.60;74.30;;;;;;5052740;28;20470;-65
2023/09/15 11:51:25;;;;;;;3.97;2.77;;;24.70;73.10;;;;;;5050965;28;20449;-65
2023/09/15 11:53:52;;;;;;;5.40;2.67;;;25.30;59.70;;;;;;5052764;28;20440;-66
2023/09/15 11:56:19;;;;;;;3.63;2.40;;;25.40;48.60;;;;;;5058227;28;20603;-64
2023/09/15 11:58:49;;;;;;;3.90;2.50;;;25.40;42.90;;;;;;5055243;28;20490;-65
2023/09/15 12:01:17;;;;;;;3.97;3.00;;;25.30;38.50;;;;;;5059129;28;20776;-65
2023/09/15 12:03:47;;;;;;;5.60;3.27;;;25.30;36.00;;;;;;5059025;28;20799;-65
2023/09/15 12:06:16;;;;;;;3.90;2.40;;;25.50;30.60;;;;;;5051705;28;20990;-64
2023/09/15 12:08:43;;;;;;;4.00;2.70;;;25.60;29.90;;;;;;5053634;28;20458;-65
2023/09/15 12:11:11;;;;;;;2.90;2.10;;;25.80;32.30;;;;;;5057561;28;20450;-66
2023/09/15 12:13:38;;;;;;;3.90;2.97;;;25.60;21.20;;;;;;5051659;28;21000;-64
2023/09/15 12:16:05;;;;;;;3.47;2.40;;;26.10;18.90;;;;;;5051342;28;20485;-64
2023/09/15 12:18:36;;;;;;;5.83;2.80;;;25.80;14.90;;;;;;5052548;28;20560;-65
2023/09/15 12:21:11;;;;;;;3.53;2.80;;;25.60;15.70;;;;;;5056906;28;20450;-65
2023/09/15 12:23:37;;;;;;;3.20;2.50;;;25.90;15.50;;;;;;5043413;28;20831;-63
2023/09/15 12:26:04;;;;;;;3.20;2.50;;;26.00;11.90;;;;;;5050493;28;20435;-63
2023/09/15 12:28:32;;;;;;;3.23;2.53;;;26.10;9.60;;;;;;5055862;28;20479;-63
2023/09/15 12:30:59;;;;;;;3.63;2.90;;;26.10;8.50;;;;;;5051299;28;20469;-63
2023/09/15 12:33:27;;;;;;;3.83;2.80;;;25.90;7.60;;;;;;5057202;28;20449;-63
2023/09/15 12:35:54;;;;;;;4.40;2.70;;;26.10;5.60;;;;;;5051530;28;20482;-63
2023/09/15 12:38:23;;;;;;;4.83;2.80;;;26.10;3.10;;;;;;5051669;28;20453;-64
2023/09/15 12:40:51;;;;;;;5.40;3.53;;;26.30;1.80;;;;;;5046315;28;20488;-64
2023/09/15 12:43:18;;;;;;;3.80;2.60;;;26.30;1.00;;;;;;5051089;28;20951;-64
2023/09/15 12:45:45;;;;;;;2.97;2.00;;;26.20;1.00;;;;;;5050698;28;20865;-63
2023/09/15 12:48:12;;;;;;;4.10;2.50;;;26.00;1.00;;;;;;5058955;28;20480;-64
2023/09/15 12:50:39;;;;;;;3.17;1.97;;;25.90;1.00;;;;;;5051465;28;20448;-64
2023/09/15 12:53:06;;;;;;;3.10;2.07;;;25.70;1.00;;;;;;5051184;28;20449;-64
2023/09/15 12:55:34;;;;;;;6.13;2.67;;;26.00;1.00;;;;;;5051058;28;20489;-65
2023/09/15 12:58:00;;;;;;;2.80;2.37;;;26.20;1.00;;;;;;5050937;28;20449;-65
2023/09/15 13:00:27;;;;;;;4.90;2.00;;;26.30;1.00;;;;;;5065583;28;20456;-63
2023/09/15 13:02:54;;;;;;;3.80;2.13;;;26.30;1.00;;;;;;5032190;28;20458;-63
2023/09/15 13:05:21;;;;;;;2.70;2.13;;;26.40;1.00;;;;;;5048898;28;20441;-63
2023/09/15 13:07:47;;;;;;;3.90;2.43;;;26.40;1.00;;;;;;5051098;28;20448;-64
2023/09/15 13:10:15;;;;;;;3.70;2.60;;;26.40;1.00;;;;;;5056746;28;20994;-64
2023/09/15 13:12:44;;;;;;;5.93;3.77;;;26.60;1.00;;;;;;5050721;28;20507;-63
2023/09/15 13:15:11;;;;;;;3.20;2.47;;;26.70;1.00;;;;;;5062062;28;20481;-65
2023/09/15 13:17:38;;;;;;;3.00;1.83;;;26.50;1.00;;;;;;5050728;28;20446;-63
2023/09/15 13:20:07;;;;;;;3.33;2.00;;;26.60;1.00;;;;;;5056361;28;20462;-63
2023/09/15 13:22:35;;;;;;;3.30;2.30;;;26.70;1.00;;;;;;5053508;28;20464;-63
2023/09/15 13:25:02;;;;;;;3.83;2.47;;;26.50;1.00;;;;;;5046251;28;20485;-64
2023/09/15 13:27:29;;;;;;;2.80;2.10;;;26.40;1.00;;;;;;5056137;28;20449;-63
2023/09/15 13:30:00;;;;;;;3.87;1.70;;;26.50;1.00;;;;;;5058637;28;20520;-64
2023/09/15 13:32:27;;;;;;;2.50;1.97;;;26.50;1.00;;;;;;5052718;28;20434;-64
2023/09/15 13:34:54;;;;;;;2.87;1.90;;;26.60;1.00;;;;;;5054394;28;20846;-64
2023/09/15 13:37:21;;;;;;;2.73;1.70;;;26.70;1.00;;;;;;5054729;28;20483;-64
2023/09/15 13:39:48;;;;;;;2.63;2.00;;;26.80;1.00;;;;;;5056085;28;20561;-64
2023/09/15 13:42:30;;;;;;;2.63;1.73;;;26.70;1.00;;;;;;5053790;28;20441;-64
2023/09/15 13:44:58;;;;;;;3.10;2.60;;;26.60;1.00;;;;;;5044876;28;20527;-64
2023/09/15 13:47:25;;;;;;;4.40;2.67;;;26.70;1.00;;;;;;5053824;28;20969;-63
2023/09/15 13:49:52;;;;;;;5.00;2.63;;;26.50;1.00;;;;;;5064777;28;20536;-64
2023/09/15 13:52:18;;;;;;;2.93;2.30;;;26.30;1.00;;;;;;5055928;28;20441;-64
2023/09/15 13:54:45;;;;;;;5.03;3.17;;;26.50;1.00;;;;;;5052781;28;20452;-63
2023/09/15 13:57:12;;;;;;;2.50;1.80;;;26.20;1.00;;;;;;5055531;28;20572;-63
2023/09/15 13:59:39;;;;;;;5.33;2.23;;;26.30;1.00;;;;;;5061906;28;20794;-64
2023/09/15 14:02:07;;;;;;;4.70;2.70;;;26.30;1.00;;;;;;5058635;28;20811;-63